sensor_id;sensor_type;location;lat;lon;timestamp;temperature;humidity
78898;DHT22;70344;44.736;37.800;2023-06-10T00:01:00;23.67;56.38
78898;DHT22;70344;44.736;37.800;2023-06-10T00:02:05;23.67;56.47
78898;DHT22;70344;44.736;37.800;2023-06-10T00:03:12;23.70;56.60
78898;DHT22;70344;44.736;37.800;2023-06-10T00:04:20;23.67;56.43
78898;DHT22;70344;44.736;37.800;2023-06-10T00:05:25;23.70;56.39
78898;DHT22;70344;44.736;37.800;2023-06-10T00:06:34;23.70;56.39
78898;DHT22;70344;44.736;37.800;2023-06-10T00:07:44;23.73;56.31
78898;DHT22;70344;44.736;37.800;2023-06-10T00:08:52;23.73;56.50
78898;DHT22;70344;44.736;37.800;2023-06-10T00:10:00;23.74;56.59
78898;DHT22;70344;44.736;37.800;2023-06-10T00:11:09;23.76;56.63
78898;DHT22;70344;44.736;37.800;2023-06-10T00:12:12;23.79;56.53
78898;DHT22;70344;44.736;37.800;2023-06-10T00:13:18;23.83;56.68
78898;DHT22;70344;44.736;37.800;2023-06-10T00:14:23;23.83;56.66
78898;DHT22;70344;44.736;37.800;2023-06-10T00:15:31;23.84;56.45
78898;DHT22;70344;44.736;37.800;2023-06-10T00:16:35;23.83;56.38
78898;DHT22;70344;44.736;37.800;2023-06-10T00:17:40;23.83;56.62
78898;DHT22;70344;44.736;37.800;2023-06-10T00:18:42;23.84;56.82
78898;DHT22;70344;44.736;37.800;2023-06-10T00:19:49;23.87;56.65
78898;DHT22;70344;44.736;37.800;2023-06-10T00:20:52;23.86;56.59
78898;DHT22;70344;44.736;37.800;2023-06-10T00:22:04;23.88;56.53
78898;DHT22;70344;44.736;37.800;2023-06-10T00:23:08;23.90;56.58
78898;DHT22;70344;44.736;37.800;2023-06-10T00:24:16;23.94;56.37
78898;DHT22;70344;44.736;37.800;2023-06-10T00:25:18;23.94;56.49
78898;DHT22;70344;44.736;37.800;2023-06-10T00:26:23;23.96;57.15
78898;DHT22;70344;44.736;37.800;2023-06-10T00:27:32;23.96;56.49
78898;DHT22;70344;44.736;37.800;2023-06-10T00:28:36;23.97;56.84
78898;DHT22;70344;44.736;37.800;2023-06-10T00:29:43;23.97;56.43
78898;DHT22;70344;44.736;37.800;2023-06-10T00:30:48;23.98;56.72
78898;DHT22;70344;44.736;37.800;2023-06-10T00:31:50;23.97;58.01
78898;DHT22;70344;44.736;37.800;2023-06-10T00:32:54;23.96;59.05
78898;DHT22;70344;44.736;37.800;2023-06-10T00:33:56;23.93;61.83
78898;DHT22;70344;44.736;37.800;2023-06-10T00:35:01;23.88;61.04
78898;DHT22;70344;44.736;37.800;2023-06-10T00:36:12;23.90;64.13
78898;DHT22;70344;44.736;37.800;2023-06-10T00:37:14;23.83;63.31
78898;DHT22;70344;44.736;37.800;2023-06-10T00:38:16;23.79;64.10
78898;DHT22;70344;44.736;37.800;2023-06-10T00:39:18;23.74;64.69
78898;DHT22;70344;44.736;37.800;2023-06-10T00:40:26;23.73;64.36
78898;DHT22;70344;44.736;37.800;2023-06-10T00:41:33;23.70;64.84
78898;DHT22;70344;44.736;37.800;2023-06-10T00:42:38;23.67;65.86
78898;DHT22;70344;44.736;37.800;2023-06-10T00:43:40;23.69;65.69
78898;DHT22;70344;44.736;37.800;2023-06-10T00:44:45;23.63;65.16
78898;DHT22;70344;44.736;37.800;2023-06-10T00:45:47;23.58;66.04
78898;DHT22;70344;44.736;37.800;2023-06-10T00:46:49;23.56;67.37
78898;DHT22;70344;44.736;37.800;2023-06-10T00:47:59;23.51;67.86
78898;DHT22;70344;44.736;37.800;2023-06-10T00:49:11;23.44;68.34
78898;DHT22;70344;44.736;37.800;2023-06-10T00:50:17;23.35;68.23
78898;DHT22;70344;44.736;37.800;2023-06-10T00:51:22;23.34;67.71
78898;DHT22;70344;44.736;37.800;2023-06-10T00:52:32;23.37;67.51
78898;DHT22;70344;44.736;37.800;2023-06-10T00:53:39;23.35;68.30
78898;DHT22;70344;44.736;37.800;2023-06-10T00:54:44;23.35;68.43
78898;DHT22;70344;44.736;37.800;2023-06-10T00:55:49;23.37;69.26
78898;DHT22;70344;44.736;37.800;2023-06-10T00:56:51;23.37;69.82
78898;DHT22;70344;44.736;37.800;2023-06-10T00:57:59;23.35;69.41
78898;DHT22;70344;44.736;37.800;2023-06-10T00:59:13;23.32;69.56
78898;DHT22;70344;44.736;37.800;2023-06-10T01:00:17;23.31;69.56
78898;DHT22;70344;44.736;37.800;2023-06-10T01:01:22;23.31;69.93
78898;DHT22;70344;44.736;37.800;2023-06-10T01:02:25;23.28;69.74
78898;DHT22;70344;44.736;37.800;2023-06-10T01:03:38;23.31;70.69
78898;DHT22;70344;44.736;37.800;2023-06-10T01:04:43;23.28;71.12
78898;DHT22;70344;44.736;37.800;2023-06-10T01:05:53;23.25;70.81
78898;DHT22;70344;44.736;37.800;2023-06-10T01:08:33;23.21;71.24
78898;DHT22;70344;44.736;37.800;2023-06-10T01:10:16;23.19;70.89
78898;DHT22;70344;44.736;37.800;2023-06-10T01:11:29;23.18;71.24
78898;DHT22;70344;44.736;37.800;2023-06-10T01:12:41;23.17;72.36
78898;DHT22;70344;44.736;37.800;2023-06-10T01:13:51;23.11;72.05
78898;DHT22;70344;44.736;37.800;2023-06-10T01:14:55;23.10;71.14
78898;DHT22;70344;44.736;37.800;2023-06-10T01:15:59;23.12;71.36
78898;DHT22;70344;44.736;37.800;2023-06-10T01:17:02;23.12;73.05
78898;DHT22;70344;44.736;37.800;2023-06-10T01:18:09;23.10;72.58
78898;DHT22;70344;44.736;37.800;2023-06-10T01:19:17;23.07;72.12
78898;DHT22;70344;44.736;37.800;2023-06-10T01:20:31;23.06;71.55
78898;DHT22;70344;44.736;37.800;2023-06-10T01:21:34;23.00;71.47
78898;DHT22;70344;44.736;37.800;2023-06-10T01:22:37;23.00;71.20
78898;DHT22;70344;44.736;37.800;2023-06-10T01:23:41;22.99;71.47
78898;DHT22;70344;44.736;37.800;2023-06-10T01:24:45;22.99;72.05
78898;DHT22;70344;44.736;37.800;2023-06-10T01:26:02;22.99;71.90
78898;DHT22;70344;44.736;37.800;2023-06-10T01:27:12;22.97;71.88
78898;DHT22;70344;44.736;37.800;2023-06-10T01:28:27;22.99;71.64
78898;DHT22;70344;44.736;37.800;2023-06-10T01:29:50;22.94;71.63
78898;DHT22;70344;44.736;37.800;2023-06-10T01:32:27;22.89;71.39
78898;DHT22;70344;44.736;37.800;2023-06-10T01:33:37;22.90;71.64
78898;DHT22;70344;44.736;37.800;2023-06-10T01:34:48;22.90;72.05
78898;DHT22;70344;44.736;37.800;2023-06-10T01:35:59;22.90;72.03
78898;DHT22;70344;44.736;37.800;2023-06-10T01:37:04;22.92;72.28
78898;DHT22;70344;44.736;37.800;2023-06-10T01:38:07;22.87;72.01
78898;DHT22;70344;44.736;37.800;2023-06-10T01:39:13;22.87;71.95
78898;DHT22;70344;44.736;37.800;2023-06-10T01:40:21;22.90;72.00
78898;DHT22;70344;44.736;37.800;2023-06-10T01:41:25;22.89;72.62
78898;DHT22;70344;44.736;37.800;2023-06-10T01:42:31;22.89;72.85
78898;DHT22;70344;44.736;37.800;2023-06-10T01:43:37;22.90;72.75
78898;DHT22;70344;44.736;37.800;2023-06-10T01:44:43;22.89;72.03
78898;DHT22;70344;44.736;37.800;2023-06-10T01:45:45;22.89;72.74
78898;DHT22;70344;44.736;37.800;2023-06-10T01:46:50;22.82;73.07
78898;DHT22;70344;44.736;37.800;2023-06-10T01:47:57;22.82;73.44
78898;DHT22;70344;44.736;37.800;2023-06-10T01:49:01;22.79;73.38
78898;DHT22;70344;44.736;37.800;2023-06-10T01:50:04;22.75;73.86
78898;DHT22;70344;44.736;37.800;2023-06-10T01:51:07;22.70;73.81
78898;DHT22;70344;44.736;37.800;2023-06-10T01:52:11;22.69;73.72
78898;DHT22;70344;44.736;37.800;2023-06-10T01:53:14;22.70;73.27
78898;DHT22;70344;44.736;37.800;2023-06-10T01:54:19;22.67;74.54
78898;DHT22;70344;44.736;37.800;2023-06-10T01:55:23;22.70;73.70
78898;DHT22;70344;44.736;37.800;2023-06-10T01:56:26;22.70;73.50
78898;DHT22;70344;44.736;37.800;2023-06-10T01:57:28;22.70;73.28
78898;DHT22;70344;44.736;37.800;2023-06-10T01:58:33;22.72;73.21
78898;DHT22;70344;44.736;37.800;2023-06-10T01:59:36;22.72;73.39
78898;DHT22;70344;44.736;37.800;2023-06-10T02:00:39;22.72;72.49
78898;DHT22;70344;44.736;37.800;2023-06-10T02:01:44;22.73;73.04
78898;DHT22;70344;44.736;37.800;2023-06-10T02:02:54;22.75;73.63
78898;DHT22;70344;44.736;37.800;2023-06-10T02:03:59;22.75;73.39
78898;DHT22;70344;44.736;37.800;2023-06-10T02:05:04;22.75;73.47
78898;DHT22;70344;44.736;37.800;2023-06-10T02:06:08;22.75;73.01
78898;DHT22;70344;44.736;37.800;2023-06-10T02:07:11;22.75;73.17
78898;DHT22;70344;44.736;37.800;2023-06-10T02:08:14;22.75;73.40
78898;DHT22;70344;44.736;37.800;2023-06-10T02:09:24;22.76;73.20
78898;DHT22;70344;44.736;37.800;2023-06-10T02:10:32;22.75;73.30
78898;DHT22;70344;44.736;37.800;2023-06-10T02:11:37;22.76;73.38
78898;DHT22;70344;44.736;37.800;2023-06-10T02:12:39;22.76;73.07
78898;DHT22;70344;44.736;37.800;2023-06-10T02:13:44;22.77;73.15
78898;DHT22;70344;44.736;37.800;2023-06-10T02:14:48;22.79;73.41
78898;DHT22;70344;44.736;37.800;2023-06-10T02:15:50;22.79;73.13
78898;DHT22;70344;44.736;37.800;2023-06-10T02:16:55;22.77;72.75
78898;DHT22;70344;44.736;37.800;2023-06-10T02:17:59;22.79;72.68
78898;DHT22;70344;44.736;37.800;2023-06-10T02:19:04;22.79;72.95
78898;DHT22;70344;44.736;37.800;2023-06-10T02:20:11;22.80;72.81
78898;DHT22;70344;44.736;37.800;2023-06-10T02:21:16;22.79;73.26
78898;DHT22;70344;44.736;37.800;2023-06-10T02:22:22;22.77;72.91
78898;DHT22;70344;44.736;37.800;2023-06-10T02:23:29;22.77;73.23
78898;DHT22;70344;44.736;37.800;2023-06-10T02:24:31;22.77;73.17
78898;DHT22;70344;44.736;37.800;2023-06-10T02:25:36;22.79;73.97
78898;DHT22;70344;44.736;37.800;2023-06-10T02:26:40;22.80;73.92
78898;DHT22;70344;44.736;37.800;2023-06-10T02:27:45;22.79;72.65
78898;DHT22;70344;44.736;37.800;2023-06-10T02:28:49;22.80;74.17
78898;DHT22;70344;44.736;37.800;2023-06-10T02:29:54;22.77;72.93
78898;DHT22;70344;44.736;37.800;2023-06-10T02:30:56;22.76;73.18
78898;DHT22;70344;44.736;37.800;2023-06-10T02:31:58;22.77;72.70
78898;DHT22;70344;44.736;37.800;2023-06-10T02:33:01;22.79;71.57
78898;DHT22;70344;44.736;37.800;2023-06-10T02:34:06;22.80;71.58
78898;DHT22;70344;44.736;37.800;2023-06-10T02:35:09;22.80;72.84
78898;DHT22;70344;44.736;37.800;2023-06-10T02:36:14;22.80;72.94
78898;DHT22;70344;44.736;37.800;2023-06-10T02:37:23;22.83;72.86
78898;DHT22;70344;44.736;37.800;2023-06-10T02:38:28;22.83;72.39
78898;DHT22;70344;44.736;37.800;2023-06-10T02:39:36;22.83;72.41
78898;DHT22;70344;44.736;37.800;2023-06-10T02:40:44;22.80;72.67
78898;DHT22;70344;44.736;37.800;2023-06-10T02:41:48;22.79;72.21
78898;DHT22;70344;44.736;37.800;2023-06-10T02:42:53;22.76;70.80
78898;DHT22;70344;44.736;37.800;2023-06-10T02:44:00;22.77;71.10
78898;DHT22;70344;44.736;37.800;2023-06-10T02:45:03;22.79;70.47
78898;DHT22;70344;44.736;37.800;2023-06-10T02:46:17;22.80;71.62
78898;DHT22;70344;44.736;37.800;2023-06-10T02:47:20;22.83;70.91
78898;DHT22;70344;44.736;37.800;2023-06-10T02:48:28;22.86;71.10
78898;DHT22;70344;44.736;37.800;2023-06-10T02:49:31;22.84;70.41
78898;DHT22;70344;44.736;37.800;2023-06-10T02:50:39;22.86;70.19
78898;DHT22;70344;44.736;37.800;2023-06-10T02:52:05;22.83;70.03
78898;DHT22;70344;44.736;37.800;2023-06-10T02:53:12;22.87;70.42
78898;DHT22;70344;44.736;37.800;2023-06-10T02:54:21;22.87;70.32
78898;DHT22;70344;44.736;37.800;2023-06-10T02:55:27;22.86;70.43
78898;DHT22;70344;44.736;37.800;2023-06-10T02:56:36;22.87;69.80
78898;DHT22;70344;44.736;37.800;2023-06-10T02:57:51;22.90;69.82
78898;DHT22;70344;44.736;37.800;2023-06-10T02:58:56;22.92;69.95
78898;DHT22;70344;44.736;37.800;2023-06-10T03:00:00;22.93;70.59
78898;DHT22;70344;44.736;37.800;2023-06-10T03:01:08;22.94;70.16
78898;DHT22;70344;44.736;37.800;2023-06-10T03:02:24;22.96;68.00
78898;DHT22;70344;44.736;37.800;2023-06-10T03:03:33;22.97;69.02
78898;DHT22;70344;44.736;37.800;2023-06-10T03:04:45;23.00;69.56
78898;DHT22;70344;44.736;37.800;2023-06-10T03:05:51;23.03;69.72
78898;DHT22;70344;44.736;37.800;2023-06-10T03:06:58;23.03;70.21
78898;DHT22;70344;44.736;37.800;2023-06-10T03:08:09;23.06;70.13
78898;DHT22;70344;44.736;37.800;2023-06-10T03:09:19;23.06;70.64
78898;DHT22;70344;44.736;37.800;2023-06-10T03:10:24;23.06;70.02
78898;DHT22;70344;44.736;37.800;2023-06-10T03:11:33;23.07;69.54
78898;DHT22;70344;44.736;37.800;2023-06-10T03:12:35;23.10;70.30
78898;DHT22;70344;44.736;37.800;2023-06-10T03:13:43;23.11;70.08
78898;DHT22;70344;44.736;37.800;2023-06-10T03:14:51;23.12;70.73
78898;DHT22;70344;44.736;37.800;2023-06-10T03:15:56;23.18;69.91
78898;DHT22;70344;44.736;37.800;2023-06-10T03:17:00;23.18;69.83
78898;DHT22;70344;44.736;37.800;2023-06-10T03:18:03;23.21;70.20
78898;DHT22;70344;44.736;37.800;2023-06-10T03:19:09;23.25;70.35
78898;DHT22;70344;44.736;37.800;2023-06-10T03:20:16;23.25;70.21
78898;DHT22;70344;44.736;37.800;2023-06-10T03:21:20;23.29;69.82
78898;DHT22;70344;44.736;37.800;2023-06-10T03:22:27;23.32;70.08
78898;DHT22;70344;44.736;37.800;2023-06-10T03:23:36;23.38;69.02
78898;DHT22;70344;44.736;37.800;2023-06-10T03:24:43;23.39;69.18
78898;DHT22;70344;44.736;37.800;2023-06-10T03:25:49;23.42;69.90
78898;DHT22;70344;44.736;37.800;2023-06-10T03:26:55;23.45;69.24
78898;DHT22;70344;44.736;37.800;2023-06-10T03:28:01;23.48;69.12
78898;DHT22;70344;44.736;37.800;2023-06-10T03:29:06;23.52;70.28
78898;DHT22;70344;44.736;37.800;2023-06-10T03:30:13;23.58;69.41
78898;DHT22;70344;44.736;37.800;2023-06-10T03:31:19;23.58;69.32
78898;DHT22;70344;44.736;37.800;2023-06-10T03:32:23;23.62;68.81
78898;DHT22;70344;44.736;37.800;2023-06-10T03:33:33;23.65;69.24
78898;DHT22;70344;44.736;37.800;2023-06-10T03:34:42;23.69;69.18
78898;DHT22;70344;44.736;37.800;2023-06-10T03:35:54;23.71;67.56
78898;DHT22;70344;44.736;37.800;2023-06-10T03:36:57;23.74;67.39
78898;DHT22;70344;44.736;37.800;2023-06-10T03:38:01;23.77;66.30
78898;DHT22;70344;44.736;37.800;2023-06-10T03:39:04;23.79;65.91
78898;DHT22;70344;44.736;37.800;2023-06-10T03:40:07;23.80;66.85
78898;DHT22;70344;44.736;37.800;2023-06-10T03:41:14;23.81;65.81
78898;DHT22;70344;44.736;37.800;2023-06-10T03:42:18;23.80;66.12
78898;DHT22;70344;44.736;37.800;2023-06-10T03:43:20;23.81;66.87
78898;DHT22;70344;44.736;37.800;2023-06-10T03:44:27;23.86;66.31
78898;DHT22;70344;44.736;37.800;2023-06-10T03:45:32;23.86;66.15
78898;DHT22;70344;44.736;37.800;2023-06-10T03:46:36;23.84;66.72
78898;DHT22;70344;44.736;37.800;2023-06-10T03:47:42;23.87;65.57
78898;DHT22;70344;44.736;37.800;2023-06-10T03:48:48;23.88;67.40
78898;DHT22;70344;44.736;37.800;2023-06-10T03:49:56;23.90;67.20
78898;DHT22;70344;44.736;37.800;2023-06-10T03:51:01;23.93;67.82
78898;DHT22;70344;44.736;37.800;2023-06-10T03:52:06;23.94;66.91
78898;DHT22;70344;44.736;37.800;2023-06-10T03:53:13;23.94;66.34
78898;DHT22;70344;44.736;37.800;2023-06-10T03:54:22;23.96;67.15
78898;DHT22;70344;44.736;37.800;2023-06-10T03:55:27;23.97;66.99
78898;DHT22;70344;44.736;37.800;2023-06-10T03:56:33;23.98;67.70
78898;DHT22;70344;44.736;37.800;2023-06-10T03:57:38;24.04;65.44
78898;DHT22;70344;44.736;37.800;2023-06-10T03:58:47;24.04;65.60
78898;DHT22;70344;44.736;37.800;2023-06-10T03:59:50;24.08;66.09
78898;DHT22;70344;44.736;37.800;2023-06-10T04:01:00;24.07;64.90
78898;DHT22;70344;44.736;37.800;2023-06-10T04:02:12;24.08;64.52
78898;DHT22;70344;44.736;37.800;2023-06-10T04:03:15;24.12;65.71
78898;DHT22;70344;44.736;37.800;2023-06-10T04:04:25;24.14;66.01
78898;DHT22;70344;44.736;37.800;2023-06-10T04:05:33;24.17;66.03
78898;DHT22;70344;44.736;37.800;2023-06-10T04:06:38;24.14;64.75
78898;DHT22;70344;44.736;37.800;2023-06-10T04:07:41;24.17;64.61
78898;DHT22;70344;44.736;37.800;2023-06-10T04:08:46;24.17;64.76
78898;DHT22;70344;44.736;37.800;2023-06-10T04:09:54;24.21;64.76
78898;DHT22;70344;44.736;37.800;2023-06-10T04:11:01;24.24;66.11
78898;DHT22;70344;44.736;37.800;2023-06-10T04:12:06;24.28;66.23
78898;DHT22;70344;44.736;37.800;2023-06-10T04:13:12;24.29;66.63
78898;DHT22;70344;44.736;37.800;2023-06-10T04:14:27;24.29;65.11
78898;DHT22;70344;44.736;37.800;2023-06-10T04:15:35;24.32;66.34
78898;DHT22;70344;44.736;37.800;2023-06-10T04:16:47;24.35;66.55
78898;DHT22;70344;44.736;37.800;2023-06-10T04:17:49;24.39;66.29
78898;DHT22;70344;44.736;37.800;2023-06-10T04:18:59;24.42;65.52
78898;DHT22;70344;44.736;37.800;2023-06-10T04:20:06;24.45;65.66
78898;DHT22;70344;44.736;37.800;2023-06-10T04:21:14;24.49;65.03
78898;DHT22;70344;44.736;37.800;2023-06-10T04:22:19;24.49;64.67
78898;DHT22;70344;44.736;37.800;2023-06-10T04:23:30;24.53;66.09
78898;DHT22;70344;44.736;37.800;2023-06-10T04:24:35;24.55;65.82
78898;DHT22;70344;44.736;37.800;2023-06-10T04:25:39;24.56;65.88
78898;DHT22;70344;44.736;37.800;2023-06-10T04:26:44;24.60;63.90
78898;DHT22;70344;44.736;37.800;2023-06-10T04:27:49;24.57;63.58
78898;DHT22;70344;44.736;37.800;2023-06-10T04:28:56;24.64;63.90
78898;DHT22;70344;44.736;37.800;2023-06-10T04:30:02;24.67;63.81
78898;DHT22;70344;44.736;37.800;2023-06-10T04:31:12;24.72;63.71
78898;DHT22;70344;44.736;37.800;2023-06-10T04:32:14;24.77;63.46
78898;DHT22;70344;44.736;37.800;2023-06-10T04:33:17;24.81;63.45
78898;DHT22;70344;44.736;37.800;2023-06-10T04:34:19;24.84;63.52
78898;DHT22;70344;44.736;37.800;2023-06-10T04:35:24;24.91;63.29
78898;DHT22;70344;44.736;37.800;2023-06-10T04:36:33;24.94;62.58
78898;DHT22;70344;44.736;37.800;2023-06-10T04:37:44;24.98;62.48
78898;DHT22;70344;44.736;37.800;2023-06-10T04:38:47;25.00;61.75
78898;DHT22;70344;44.736;37.800;2023-06-10T04:39:52;25.05;62.47
78898;DHT22;70344;44.736;37.800;2023-06-10T04:40:57;25.18;64.67
78898;DHT22;70344;44.736;37.800;2023-06-10T04:41:59;25.26;62.12
78898;DHT22;70344;44.736;37.800;2023-06-10T04:43:05;25.29;61.09
78898;DHT22;70344;44.736;37.800;2023-06-10T04:44:09;25.41;61.18
78898;DHT22;70344;44.736;37.800;2023-06-10T04:45:13;25.42;60.38
78898;DHT22;70344;44.736;37.800;2023-06-10T04:46:18;25.46;60.62
78898;DHT22;70344;44.736;37.800;2023-06-10T04:47:23;25.43;60.56
78898;DHT22;70344;44.736;37.800;2023-06-10T04:48:25;25.43;59.60
78898;DHT22;70344;44.736;37.800;2023-06-10T04:49:28;25.43;59.75
78898;DHT22;70344;44.736;37.800;2023-06-10T04:50:33;25.46;60.22
78898;DHT22;70344;44.736;37.800;2023-06-10T04:51:38;25.52;60.54
78898;DHT22;70344;44.736;37.800;2023-06-10T04:52:47;25.57;61.24
78898;DHT22;70344;44.736;37.800;2023-06-10T04:53:52;25.62;61.53
78898;DHT22;70344;44.736;37.800;2023-06-10T04:54:57;25.60;62.42
78898;DHT22;70344;44.736;37.800;2023-06-10T04:56:02;25.65;61.69
78898;DHT22;70344;44.736;37.800;2023-06-10T04:57:07;25.71;61.89
78898;DHT22;70344;44.736;37.800;2023-06-10T04:58:15;25.71;60.74
78898;DHT22;70344;44.736;37.800;2023-06-10T04:59:17;25.76;60.00
78898;DHT22;70344;44.736;37.800;2023-06-10T05:00:26;25.74;60.22
78898;DHT22;70344;44.736;37.800;2023-06-10T05:01:34;25.78;60.74
78898;DHT22;70344;44.736;37.800;2023-06-10T05:02:44;25.80;60.70
78898;DHT22;70344;44.736;37.800;2023-06-10T05:03:52;25.84;60.14
78898;DHT22;70344;44.736;37.800;2023-06-10T05:04:59;25.85;60.23
78898;DHT22;70344;44.736;37.800;2023-06-10T05:06:03;25.84;60.96
78898;DHT22;70344;44.736;37.800;2023-06-10T05:07:08;25.83;60.40
78898;DHT22;70344;44.736;37.800;2023-06-10T05:08:15;25.83;58.16
78898;DHT22;70344;44.736;37.800;2023-06-10T05:09:20;25.88;58.14
78898;DHT22;70344;44.736;37.800;2023-06-10T05:10:24;25.94;57.70
78898;DHT22;70344;44.736;37.800;2023-06-10T05:11:27;25.98;56.40
78898;DHT22;70344;44.736;37.800;2023-06-10T05:12:29;26.04;57.06
78898;DHT22;70344;44.736;37.800;2023-06-10T05:13:32;26.12;56.91
78898;DHT22;70344;44.736;37.800;2023-06-10T05:14:36;26.25;57.02
78898;DHT22;70344;44.736;37.800;2023-06-10T05:15:45;26.33;56.43
78898;DHT22;70344;44.736;37.800;2023-06-10T05:16:51;26.47;56.59
78898;DHT22;70344;44.736;37.800;2023-06-10T05:18:01;26.57;55.74
78898;DHT22;70344;44.736;37.800;2023-06-10T05:19:13;26.61;55.36
78898;DHT22;70344;44.736;37.800;2023-06-10T05:20:18;26.71;56.08
78898;DHT22;70344;44.736;37.800;2023-06-10T05:21:29;26.86;57.36
78898;DHT22;70344;44.736;37.800;2023-06-10T05:22:34;26.91;55.59
78898;DHT22;70344;44.736;37.800;2023-06-10T05:23:44;26.99;54.19
78898;DHT22;70344;44.736;37.800;2023-06-10T05:24:53;26.95;54.53
78898;DHT22;70344;44.736;37.800;2023-06-10T05:25:55;26.99;55.58
78898;DHT22;70344;44.736;37.800;2023-06-10T05:27:02;26.98;54.59
78898;DHT22;70344;44.736;37.800;2023-06-10T05:28:08;26.98;55.23
78898;DHT22;70344;44.736;37.800;2023-06-10T05:29:17;26.99;56.33
78898;DHT22;70344;44.736;37.800;2023-06-10T05:30:27;27.02;55.11
78898;DHT22;70344;44.736;37.800;2023-06-10T05:31:31;26.97;55.32
78898;DHT22;70344;44.736;37.800;2023-06-10T05:32:36;26.98;55.03
78898;DHT22;70344;44.736;37.800;2023-06-10T05:33:40;26.99;55.79
78898;DHT22;70344;44.736;37.800;2023-06-10T05:34:45;26.98;55.02
78898;DHT22;70344;44.736;37.800;2023-06-10T05:35:51;27.04;55.08
78898;DHT22;70344;44.736;37.800;2023-06-10T05:36:57;27.02;55.94
78898;DHT22;70344;44.736;37.800;2023-06-10T05:37:59;27.06;54.99
78898;DHT22;70344;44.736;37.800;2023-06-10T05:39:06;27.11;55.12
78898;DHT22;70344;44.736;37.800;2023-06-10T05:40:13;27.18;55.27
78898;DHT22;70344;44.736;37.800;2023-06-10T05:41:16;27.26;55.56
78898;DHT22;70344;44.736;37.800;2023-06-10T05:42:23;27.32;55.44
78898;DHT22;70344;44.736;37.800;2023-06-10T05:43:27;27.38;54.33
78898;DHT22;70344;44.736;37.800;2023-06-10T05:44:32;27.43;54.59
78898;DHT22;70344;44.736;37.800;2023-06-10T05:45:42;27.39;55.03
78898;DHT22;70344;44.736;37.800;2023-06-10T05:46:44;27.35;53.99
78898;DHT22;70344;44.736;37.800;2023-06-10T05:47:49;27.36;54.30
78898;DHT22;70344;44.736;37.800;2023-06-10T05:49:00;27.40;55.23
78898;DHT22;70344;44.736;37.800;2023-06-10T05:50:08;27.42;53.77
78898;DHT22;70344;44.736;37.800;2023-06-10T05:51:12;27.45;53.69
78898;DHT22;70344;44.736;37.800;2023-06-10T05:52:20;27.45;54.15
78898;DHT22;70344;44.736;37.800;2023-06-10T05:53:24;27.43;53.63
78898;DHT22;70344;44.736;37.800;2023-06-10T05:54:30;27.42;54.44
78898;DHT22;70344;44.736;37.800;2023-06-10T05:55:34;27.40;53.51
78898;DHT22;70344;44.736;37.800;2023-06-10T05:56:36;27.40;53.98
78898;DHT22;70344;44.736;37.800;2023-06-10T05:57:41;27.43;54.31
78898;DHT22;70344;44.736;37.800;2023-06-10T05:58:46;27.45;55.16
78898;DHT22;70344;44.736;37.800;2023-06-10T05:59:48;27.40;54.21
78898;DHT22;70344;44.736;37.800;2023-06-10T06:00:53;27.40;54.41
78898;DHT22;70344;44.736;37.800;2023-06-10T06:01:59;27.38;54.41
78898;DHT22;70344;44.736;37.800;2023-06-10T06:03:07;27.39;54.31
78898;DHT22;70344;44.736;37.800;2023-06-10T06:04:16;27.35;53.76
78898;DHT22;70344;44.736;37.800;2023-06-10T06:05:28;27.30;54.98
78898;DHT22;70344;44.736;37.800;2023-06-10T06:06:42;27.32;54.10
78898;DHT22;70344;44.736;37.800;2023-06-10T06:07:51;27.30;54.51
78898;DHT22;70344;44.736;37.800;2023-06-10T06:08:54;27.26;54.28
78898;DHT22;70344;44.736;37.800;2023-06-10T06:10:02;27.23;54.80
78898;DHT22;70344;44.736;37.800;2023-06-10T06:11:05;27.16;54.44
78898;DHT22;70344;44.736;37.800;2023-06-10T06:12:08;27.11;55.27
78898;DHT22;70344;44.736;37.800;2023-06-10T06:13:10;27.13;55.62
78898;DHT22;70344;44.736;37.800;2023-06-10T06:14:16;27.11;56.11
78898;DHT22;70344;44.736;37.800;2023-06-10T06:15:23;27.11;56.06
78898;DHT22;70344;44.736;37.800;2023-06-10T06:16:25;27.09;56.77
78898;DHT22;70344;44.736;37.800;2023-06-10T06:17:27;27.09;56.80
78898;DHT22;70344;44.736;37.800;2023-06-10T06:18:33;27.08;56.88
78898;DHT22;70344;44.736;37.800;2023-06-10T06:19:39;27.04;57.24
78898;DHT22;70344;44.736;37.800;2023-06-10T06:20:41;27.06;57.43
78898;DHT22;70344;44.736;37.800;2023-06-10T06:21:48;27.02;57.49
78898;DHT22;70344;44.736;37.800;2023-06-10T06:22:51;27.01;57.84
78898;DHT22;70344;44.736;37.800;2023-06-10T06:23:56;26.94;58.00
78898;DHT22;70344;44.736;37.800;2023-06-10T06:25:02;26.95;58.70
78898;DHT22;70344;44.736;37.800;2023-06-10T06:26:10;26.94;57.68
78898;DHT22;70344;44.736;37.800;2023-06-10T06:27:12;26.95;58.32
78898;DHT22;70344;44.736;37.800;2023-06-10T06:28:19;27.04;57.40
78898;DHT22;70344;44.736;37.800;2023-06-10T06:29:32;27.02;58.22
78898;DHT22;70344;44.736;37.800;2023-06-10T06:30:35;27.06;58.34
78898;DHT22;70344;44.736;37.800;2023-06-10T06:31:38;27.09;57.52
78898;DHT22;70344;44.736;37.800;2023-06-10T06:32:47;27.08;57.53
78898;DHT22;70344;44.736;37.800;2023-06-10T06:33:53;27.11;57.90
78898;DHT22;70344;44.736;37.800;2023-06-10T06:35:00;27.15;58.70
78898;DHT22;70344;44.736;37.800;2023-06-10T06:36:06;27.16;57.94
78898;DHT22;70344;44.736;37.800;2023-06-10T06:37:09;27.16;56.72
78898;DHT22;70344;44.736;37.800;2023-06-10T06:38:20;27.22;57.71
78898;DHT22;70344;44.736;37.800;2023-06-10T06:39:22;27.23;57.84
78898;DHT22;70344;44.736;37.800;2023-06-10T06:40:27;27.23;57.53
78898;DHT22;70344;44.736;37.800;2023-06-10T06:41:29;27.21;57.38
78898;DHT22;70344;44.736;37.800;2023-06-10T06:42:37;27.21;58.84
78898;DHT22;70344;44.736;37.800;2023-06-10T06:43:56;27.26;57.63
78898;DHT22;70344;44.736;37.800;2023-06-10T06:45:06;27.30;57.48
78898;DHT22;70344;44.736;37.800;2023-06-10T06:46:10;27.28;57.72
78898;DHT22;70344;44.736;37.800;2023-06-10T06:47:19;27.32;57.53
78898;DHT22;70344;44.736;37.800;2023-06-10T06:48:21;27.30;57.33
78898;DHT22;70344;44.736;37.800;2023-06-10T06:49:28;27.23;57.40
78898;DHT22;70344;44.736;37.800;2023-06-10T06:50:33;27.25;57.63
78898;DHT22;70344;44.736;37.800;2023-06-10T06:51:38;27.26;57.56
78898;DHT22;70344;44.736;37.800;2023-06-10T06:52:40;27.30;57.48
78898;DHT22;70344;44.736;37.800;2023-06-10T06:53:42;27.30;57.66
78898;DHT22;70344;44.736;37.800;2023-06-10T06:54:49;27.32;57.90